Time;durP1;ratioP1;P1;durP2;ratioP2;P2;SDS_P1;SDS_P2;PMS_P1;PMS_P2;Temp;Humidity;BMP_temperature;BMP_pressure;BME280_temperature;BME280_humidity;BME280_pressure;Samples;Min_cycle;Max_cycle;Signal;HPM_P1;HPM_P2
2023/06/16 00:01:04;;;;;;;;;;;24.90;49.20;;;;;;20915233;28;19967;-56
2023/06/16 00:11:05;;;;;;;;;;;24.70;49.70;;;;;;20913384;28;19925;-58
2023/06/16 00:21:08;;;;;;;;;;;24.40;50.60;;;;;;20913743;28;19924;-57
2023/06/16 00:31:09;;;;;;;;;;;24.20;51.80;;;;;;20920689;28;19925;-57
2023/06/16 00:41:10;;;;;;;;;;;24.00;52.30;;;;;;20930381;28;19928;-56
2023/06/16 00:51:11;;;;;;;;;;;23.80;52.70;;;;;;20929506;28;19924;-57
2023/06/16 01:01:12;;;;;;;;;;;23.70;52.70;;;;;;20928881;28;20398;-56
2023/06/16 01:11:13;;;;;;;;;;;23.70;51.90;;;;;;20928227;28;19978;-56
2023/06/16 01:21:23;;;;;;;;;;;23.80;50.30;;;;;;20925646;28;20374;-58
2023/06/16 01:31:25;;;;;;;;;;;23.70;49.30;;;;;;20926629;28;20423;-56
2023/06/16 01:41:26;;;;;;;;;;;23.90;46.00;;;;;;20924781;28;20432;-56
2023/06/16 01:51:27;;;;;;;;;;;23.90;44.70;;;;;;20924058;28;19935;-56
2023/06/16 02:01:39;;;;;;;;;;;23.90;44.50;;;;;;20924136;28;19972;-57
2023/06/16 02:11:40;;;;;;;;;;;24.00;43.30;;;;;;20923463;28;20328;-56
2023/06/16 02:21:41;;;;;;;;;;;23.90;43.60;;;;;;20921163;28;19983;-56
2023/06/16 02:31:49;;;;;;;;;;;23.80;43.90;;;;;;20921916;28;19925;-56
2023/06/16 02:41:49;;;;;;;;;;;23.60;45.70;;;;;;20921326;28;20496;-57
2023/06/16 02:51:50;;;;;;;;;;;23.40;47.10;;;;;;20919051;28;19998;-57
2023/06/16 03:01:51;;;;;;;;;;;23.20;47.80;;;;;;20919579;28;20353;-56
2023/06/16 03:11:52;;;;;;;;;;;23.10;47.10;;;;;;20919196;28;19970;-56
2023/06/16 03:21:53;;;;;;;;;;;23.00;47.70;;;;;;20917836;28;19932;-55
2023/06/16 03:31:53;;;;;;;;;;;22.80;47.90;;;;;;20917709;28;19925;-56
2023/06/16 03:41:54;;;;;;;;;;;22.60;48.50;;;;;;20916824;28;19935;-56
2023/06/16 03:51:56;;;;;;;;;;;22.60;48.70;;;;;;20916157;28;20007;-56
2023/06/16 04:01:57;;;;;;;;;;;22.40;49.30;;;;;;20913904;28;20027;-56
2023/06/16 04:11:58;;;;;;;;;;;22.40;49.60;;;;;;20914826;28;19974;-57
2023/06/16 04:21:59;;;;;;;;;;;22.20;50.00;;;;;;20913889;28;19925;-57
2023/06/16 04:32:00;;;;;;;;;;;22.20;50.10;;;;;;20913883;28;19948;-57
2023/06/16 04:42:02;;;;;;;;;;;22.20;49.90;;;;;;20913384;28;19925;-56
2023/06/16 04:52:08;;;;;;;;;;;22.20;49.80;;;;;;20912526;28;20456;-55
2023/06/16 05:02:09;;;;;;;;;;;22.20;49.70;;;;;;20912681;28;19924;-56
2023/06/16 05:12:10;;;;;;;;;;;22.20;49.50;;;;;;20912238;28;19974;-57
2023/06/16 05:22:10;;;;;;;;;;;22.40;48.90;;;;;;20923605;28;20297;-56
2023/06/16 05:32:11;;;;;;;;;;;22.60;47.50;;;;;;20926701;28;19924;-56
2023/06/16 05:42:13;;;;;;;;;;;22.70;46.70;;;;;;20925662;28;19924;-56
2023/06/16 05:52:14;;;;;;;;;;;22.60;47.20;;;;;;20924555;28;19973;-56
2023/06/16 06:02:15;;;;;;;;;;;22.60;47.10;;;;;;20924313;28;19925;-56
2023/06/16 06:12:17;;;;;;;;;;;22.80;46.40;;;;;;20923313;28;19932;-58
2023/06/16 06:22:18;;;;;;;;;;;22.90;46.30;;;;;;20921412;28;19935;-57
2023/06/16 06:32:18;;;;;;;;;;;23.10;45.80;;;;;;20918784;28;19929;-56
2023/06/16 06:42:19;;;;;;;;;;;23.20;45.40;;;;;;20919938;28;19978;-57
2023/06/16 06:52:20;;;;;;;;;;;23.40;45.00;;;;;;20917794;28;20434;-57
2023/06/16 07:02:21;;;;;;;;;;;23.60;44.80;;;;;;20917086;28;20383;-56
2023/06/16 07:12:21;;;;;;;;;;;24.30;44.00;;;;;;20918070;28;20037;-56
2023/06/16 07:22:22;;;;;;;;;;;25.00;42.60;;;;;;20917068;28;19925;-56
2023/06/16 07:32:23;;;;;;;;;;;25.50;41.50;;;;;;20916996;28;19925;-56
2023/06/16 07:42:23;;;;;;;;;;;26.00;40.40;;;;;;20914283;28;20011;-57
2023/06/16 07:52:25;;;;;;;;;;;26.50;39.50;;;;;;20915413;28;20397;-57
2023/06/16 08:02:26;;;;;;;;;;;26.70;39.20;;;;;;20914857;28;20370;-56
2023/06/16 08:12:26;;;;;;;;;;;27.10;39.00;;;;;;20913905;28;19928;-57
2023/06/16 08:22:27;;;;;;;;;;;27.20;38.40;;;;;;20912530;28;19936;-56
2023/06/16 08:32:28;;;;;;;;;;;27.50;38.10;;;;;;20912405;28;19929;-56
2023/06/16 08:42:29;;;;;;;;;;;27.60;37.50;;;;;;20910937;28;19925;-56
2023/06/16 08:52:31;;;;;;;;;;;27.80;37.20;;;;;;20919394;28;20382;-57
2023/06/16 09:02:33;;;;;;;;;;;27.90;37.30;;;;;;20926623;28;20019;-56
2023/06/16 09:12:34;;;;;;;;;;;28.40;36.30;;;;;;20927486;28;19971;-58
2023/06/16 09:22:36;;;;;;;;;;;28.40;36.30;;;;;;20925550;28;19968;-58
2023/06/16 09:32:37;;;;;;;;;;;28.60;36.30;;;;;;20925949;28;19971;-58
2023/06/16 09:42:38;;;;;;;;;;;28.60;36.20;;;;;;20924108;28;19929;-56
2023/06/16 09:52:41;;;;;;;;;;;28.70;35.90;;;;;;20885055;28;20393;-58
2023/06/16 10:02:42;;;;;;;;;;;28.80;36.40;;;;;;20889434;28;19925;-58
2023/06/16 10:12:47;;;;;;;;;;;29.00;35.70;;;;;;20921379;28;19978;-57
2023/06/16 10:22:48;;;;;;;;;;;29.20;35.50;;;;;;20920379;28;20332;-59
2023/06/16 10:32:49;;;;;;;;;;;29.50;35.20;;;;;;20919953;28;19998;-58
2023/06/16 10:42:55;;;;;;;;;;;29.70;34.50;;;;;;20918396;28;19931;-57
2023/06/16 10:52:56;;;;;;;;;;;30.00;34.40;;;;;;20918283;28;19988;-57
2023/06/16 11:03:00;;;;;;;;;;;30.20;33.70;;;;;;20917181;28;19925;-57
2023/06/16 11:13:03;;;;;;;;;;;30.60;33.20;;;;;;20917040;28;19925;-58
2023/06/16 11:23:04;;;;;;;;;;;30.60;33.00;;;;;;20914889;28;19925;-60
2023/06/16 11:33:06;;;;;;;;;;;30.70;32.60;;;;;;20914118;28;19925;-56
2023/06/16 11:43:07;;;;;;;;;;;30.70;32.80;;;;;;20913396;28;19929;-57
2023/06/16 11:53:11;;;;;;;;;;;31.10;32.10;;;;;;20913678;28;19924;-56
2023/06/16 12:03:13;;;;;;;;;;;30.90;31.10;;;;;;20913641;28;20271;-57
2023/06/16 12:13:14;;;;;;;;;;;31.20;31.00;;;;;;20912166;28;20406;-58
2023/06/16 12:23:17;;;;;;;;;;;31.20;30.50;;;;;;20911050;28;19924;-56
2023/06/16 12:33:18;;;;;;;;;;;31.70;29.80;;;;;;20911581;28;20020;-57
2023/06/16 12:43:22;;;;;;;;;;;31.90;29.40;;;;;;20911798;28;19987;-57
2023/06/16 12:53:22;;;;;;;;;;;31.80;29.20;;;;;;20911157;28;19995;-57
2023/06/16 13:03:23;;;;;;;;;;;32.10;28.40;;;;;;20908658;28;19924;-56
2023/06/16 13:13:23;;;;;;;;;;;31.90;28.60;;;;;;20910309;28;19968;-56
2023/06/16 13:23:24;;;;;;;;;;;31.80;29.40;;;;;;20908421;28;20035;-56
2023/06/16 13:33:25;;;;;;;;;;;32.10;28.90;;;;;;20909462;28;20378;-55
2023/06/16 13:43:26;;;;;;;;;;;32.20;28.40;;;;;;20920759;28;19976;-55
2023/06/16 13:53:26;;;;;;;;;;;32.50;28.00;;;;;;20922800;28;19978;-56
2023/06/16 14:03:28;;;;;;;;;;;32.10;28.60;;;;;;20921793;28;19952;-55
2023/06/16 14:13:29;;;;;;;;;;;32.20;27.50;;;;;;20920152;28;19928;-57
2023/06/16 14:23:29;;;;;;;;;;;32.60;27.10;;;;;;20919284;28;19975;-56
2023/06/16 14:33:30;;;;;;;;;;;32.60;27.40;;;;;;20920318;28;19947;-55
2023/06/16 14:43:31;;;;;;;;;;;32.60;27.70;;;;;;20918039;28;19925;-56
2023/06/16 14:53:31;;;;;;;;;;;32.50;28.00;;;;;;20918823;28;20265;-56
2023/06/16 15:03:32;;;;;;;;;;;32.40;27.40;;;;;;20916795;28;19932;-57
2023/06/16 15:13:33;;;;;;;;;;;32.40;27.60;;;;;;20915372;28;19925;-58
2023/06/16 15:23:33;;;;;;;;;;;32.60;27.80;;;;;;20915695;28;20026;-57
2023/06/16 15:33:34;;;;;;;;;;;32.60;28.10;;;;;;20915747;28;19964;-57
2023/06/16 15:43:35;;;;;;;;;;;32.50;28.40;;;;;;20915479;28;19976;-58
2023/06/16 15:53:35;;;;;;;;;;;32.60;28.20;;;;;;20914562;28;19924;-57
2023/06/16 16:03:36;;;;;;;;;;;32.60;28.10;;;;;;20912139;28;19983;-58
2023/06/16 16:13:37;;;;;;;;;;;32.80;27.90;;;;;;20912100;28;20358;-58
2023/06/16 16:23:37;;;;;;;;;;;32.80;27.80;;;;;;20905857;28;19989;-57
2023/06/16 16:33:38;;;;;;;;;;;32.90;27.40;;;;;;20908702;28;20086;-58
2023/06/16 16:43:38;;;;;;;;;;;32.60;27.40;;;;;;20904772;28;19955;-56
2023/06/16 16:53:39;;;;;;;;;;;32.60;27.10;;;;;;20906648;28;19979;-56
2023/06/16 17:03:40;;;;;;;;;;;32.60;25.90;;;;;;20911919;28;19968;-56
2023/06/16 17:13:41;;;;;;;;;;;32.60;25.20;;;;;;20917253;28;19997;-56
2023/06/16 17:23:43;;;;;;;;;;;32.40;25.60;;;;;;20927445;28;19925;-56
2023/06/16 17:33:43;;;;;;;;;;;32.50;25.10;;;;;;20926593;28;20381;-59
2023/06/16 17:43:44;;;;;;;;;;;32.50;25.80;;;;;;20926271;28;19978;-58
2023/06/16 17:53:45;;;;;;;;;;;32.30;25.50;;;;;;20923970;28;19967;-58
2023/06/16 18:03:46;;;;;;;;;;;32.30;25.40;;;;;;20923598;28;19925;-57
2023/06/16 18:13:46;;;;;;;;;;;32.30;25.40;;;;;;20921397;28;20161;-57
2023/06/16 18:23:47;;;;;;;;;;;32.20;25.30;;;;;;20920792;28;20386;-57
2023/06/16 18:33:48;;;;;;;;;;;32.10;25.20;;;;;;20921604;28;20269;-56
2023/06/16 18:43:48;;;;;;;;;;;31.90;25.40;;;;;;20919669;28;19973;-55
2023/06/16 18:53:50;;;;;;;;;;;31.80;24.90;;;;;;20918866;28;20302;-56
2023/06/16 19:03:51;;;;;;;;;;;31.60;25.80;;;;;;20919101;28;19998;-55
2023/06/16 19:13:52;;;;;;;;;;;31.50;26.70;;;;;;20918025;28;19978;-56
2023/06/16 19:23:53;;;;;;;;;;;31.20;27.30;;;;;;20916565;28;19924;-57
2023/06/16 19:33:53;;;;;;;;;;;31.10;28.90;;;;;;20914149;28;20373;-56
2023/06/16 19:43:54;;;;;;;;;;;30.90;29.80;;;;;;20914580;28;20013;-56
2023/06/16 19:53:55;;;;;;;;;;;30.60;31.20;;;;;;20914852;28;20396;-58
2023/06/16 20:03:56;;;;;;;;;;;30.40;31.70;;;;;;20913280;28;19924;-57
2023/06/16 20:13:58;;;;;;;;;;;30.30;32.20;;;;;;20913936;28;20374;-56
2023/06/16 20:23:59;;;;;;;;;;;30.10;32.60;;;;;;20911562;28;19932;-57
2023/06/16 20:34:00;;;;;;;;;;;30.00;33.20;;;;;;20913051;28;19929;-56
2023/06/16 20:44:01;;;;;;;;;;;29.80;33.90;;;;;;20912763;28;19925;-57
2023/06/16 20:54:02;;;;;;;;;;;29.70;34.20;;;;;;20929096;28;20039;-56
2023/06/16 21:04:02;;;;;;;;;;;29.50;34.70;;;;;;20929527;28;19980;-56
2023/06/16 21:14:03;;;;;;;;;;;29.40;35.20;;;;;;20925233;28;19929;-57
2023/06/16 21:24:04;;;;;;;;;;;29.20;35.70;;;;;;20926398;28;19929;-58
2023/06/16 21:34:05;;;;;;;;;;;29.20;36.10;;;;;;20924095;28;20027;-56
2023/06/16 21:44:05;;;;;;;;;;;29.10;36.50;;;;;;20925048;28;20353;-56
2023/06/16 21:54:06;;;;;;;;;;;28.90;36.90;;;;;;20923330;28;20366;-56
2023/06/16 22:04:07;;;;;;;;;;;28.70;37.80;;;;;;20921930;28;19928;-56
2023/06/16 22:14:07;;;;;;;;;;;28.40;38.30;;;;;;20922694;28;19925;-57
2023/06/16 22:24:08;;;;;;;;;;;28.10;38.80;;;;;;20921388;28;19932;-57
2023/06/16 22:34:09;;;;;;;;;;;27.90;39.90;;;;;;20920909;28;19925;-56
2023/06/16 22:44:09;;;;;;;;;;;27.70;40.70;;;;;;20920424;28;19952;-56
2023/06/16 22:54:10;;;;;;;;;;;27.50;41.50;;;;;;20920134;28;19954;-56
2023/06/16 23:04:11;;;;;;;;;;;27.30;41.90;;;;;;20918577;28;19924;-56
2023/06/16 23:14:12;;;;;;;;;;;27.30;42.60;;;;;;20917148;28;20445;-54
2023/06/16 23:24:18;;;;;;;;;;;27.20;43.20;;;;;;20917522;28;19925;-55
2023/06/16 23:34:18;;;;;;;;;;;27.10;43.60;;;;;;20916394;28;19969;-58
2023/06/16 23:44:19;;;;;;;;;;;27.00;45.00;;;;;;20917166;28;19975;-56
2023/06/16 23:54:22;;;;;;;;;;;26.70;45.90;;;;;;20914421;28;19958;-55
